Time;durP1;ratioP1;P1;durP2;ratioP2;P2;SDS_P1;SDS_P2;PMS_P1;PMS_P2;Temp;Humidity;BMP_temperature;BMP_pressure;BME280_temperature;BME280_humidity;BME280_pressure;Samples;Min_cycle;Max_cycle;Signal;HPM_P1;HPM_P2
2022/11/12 00:02:01;;;;;;;31.90;22.67;;;;;;;5.71;96.64;103075.00;5052337;28;20036;-45
2022/11/12 00:04:26;;;;;;;30.98;22.50;;;;;;;5.72;96.70;103073.22;5051764;28;20082;-45
2022/11/12 00:06:52;;;;;;;26.00;20.90;;;;;;;5.71;96.08;103074.13;5053339;28;20044;-45
2022/11/12 00:09:17;;;;;;;32.50;23.90;;;;;;;5.72;96.77;103078.50;5049450;28;20033;-45
2022/11/12 00:11:42;;;;;;;31.65;23.63;;;;;;;5.70;96.94;103082.94;5051022;28;20437;-45
2022/11/12 00:14:07;;;;;;;31.80;23.50;;;;;;;5.69;96.94;103091.75;5051516;28;20033;-44
2022/11/12 00:16:33;;;;;;;32.08;24.02;;;;;;;5.67;97.46;103086.50;5039567;28;20025;-44
2022/11/12 00:18:58;;;;;;;34.60;24.40;;;;;;;5.67;97.47;103085.63;5051577;28;20024;-44
2022/11/12 00:21:23;;;;;;;31.48;23.30;;;;;;;5.63;97.33;103079.56;5051853;28;20108;-45
2022/11/12 00:23:48;;;;;;;32.70;24.48;;;;;;;5.65;98.23;103082.16;5048346;28;20446;-45
2022/11/12 00:26:14;;;;;;;30.65;23.65;;;;;;;5.65;97.75;103084.81;5051407;28;20036;-45
2022/11/12 00:28:39;;;;;;;31.35;22.65;;;;;;;5.63;97.41;103086.59;5051336;28;20059;-46
2022/11/12 00:31:09;;;;;;;37.20;24.60;;;;;;;5.61;97.34;103094.50;5046170;28;20044;-45
2022/11/12 00:33:38;;;;;;;28.90;23.65;;;;;;;5.61;97.93;103093.66;5051297;28;20552;-47
2022/11/12 00:36:04;;;;;;;29.73;24.35;;;;;;;5.61;97.78;103102.44;5051291;28;20040;-45
2022/11/12 00:38:29;;;;;;;31.05;24.30;;;;;;;5.60;97.74;103090.16;5046726;28;20021;-44
2022/11/12 00:40:58;;;;;;;31.50;23.75;;;;;;;5.60;97.88;103095.44;5047106;28;20037;-47
2022/11/12 00:43:23;;;;;;;35.70;25.08;;;;;;;5.61;97.38;103089.25;5051105;28;20051;-45
2022/11/12 00:45:49;;;;;;;29.88;23.55;;;;;;;5.59;97.34;103093.69;5051695;28;20025;-48
2022/11/12 00:48:14;;;;;;;29.73;23.85;;;;;;;5.58;97.90;103089.34;5048053;28;20025;-45
2022/11/12 00:50:39;;;;;;;34.22;23.77;;;;;;;5.57;97.70;103090.22;5052064;28;20031;-44
2022/11/12 00:53:04;;;;;;;31.48;22.42;;;;;;;5.56;96.88;103091.09;5038115;28;20071;-44
2022/11/12 00:55:30;;;;;;;26.83;21.80;;;;;;;5.54;97.05;103085.00;5048548;28;20033;-44
2022/11/12 00:57:57;;;;;;;28.67;22.67;;;;;;;5.51;97.31;103082.41;5049763;28;20378;-46
2022/11/12 01:00:22;;;;;;;28.00;21.98;;;;;;;5.50;96.98;103083.34;5049507;28;20116;-47
2022/11/12 01:02:48;;;;;;;29.95;22.13;;;;;;;5.48;97.08;103077.19;5051398;28;20075;-45
2022/11/12 01:05:13;;;;;;;26.85;21.67;;;;;;;5.45;97.11;103083.41;5045280;28;20036;-47
2022/11/12 01:07:38;;;;;;;26.10;20.35;;;;;;;5.45;97.39;103075.50;5046519;28;20123;-46
2022/11/12 01:10:04;;;;;;;29.05;22.05;;;;;;;5.45;97.85;103085.19;5044017;28;20475;-45
2022/11/12 01:12:30;;;;;;;26.30;20.23;;;;;;;5.41;97.29;103076.44;5046179;28;20056;-47
2022/11/12 01:14:56;;;;;;;25.55;19.80;;;;;;;5.42;97.26;103074.72;5050851;28;20035;-45
2022/11/12 01:17:21;;;;;;;23.92;19.77;;;;;;;5.42;96.94;103074.72;5051547;28;20104;-45
2022/11/12 01:19:46;;;;;;;25.60;19.77;;;;;;;5.41;96.90;103075.59;5049682;28;20033;-44
2022/11/12 01:22:11;;;;;;;25.73;18.90;;;;;;;5.40;96.65;103073.88;5051527;28;20112;-46
2022/11/12 01:24:37;;;;;;;24.98;19.65;;;;;;;5.36;96.39;103068.66;5051464;28;20170;-45
2022/11/12 01:27:02;;;;;;;24.33;19.02;;;;;;;5.34;95.95;103080.09;5047692;28;20378;-45
2022/11/12 01:29:27;;;;;;;26.20;18.33;;;;;;;5.33;96.04;103076.63;5054344;28;20102;-45
2022/11/12 01:31:53;;;;;;;25.55;18.13;;;;;;;5.32;95.39;103074.88;5051300;28;20108;-44
2022/11/12 01:34:18;;;;;;;25.75;18.73;;;;;;;5.31;95.42;103080.16;5052098;28;20026;-45
2022/11/12 01:36:43;;;;;;;24.13;18.10;;;;;;;5.28;95.10;103078.47;5049614;28;20024;-45
2022/11/12 01:39:09;;;;;;;22.70;17.30;;;;;;;5.25;94.99;103075.03;5050997;28;20021;-46
2022/11/12 01:41:37;;;;;;;22.80;17.13;;;;;;;5.19;94.95;103073.34;5051390;28;20059;-46
2022/11/12 01:44:19;;;;;;;21.83;17.63;;;;;;;5.18;94.71;103074.28;5050180;28;20021;-46
2022/11/12 01:47:01;;;;;;;21.38;16.88;;;;;;;5.17;94.64;103069.88;5047753;28;20040;-46
2022/11/12 01:49:29;;;;;;;22.90;17.90;;;;;;;5.12;94.69;103069.97;5051578;28;20554;-46
2022/11/12 01:51:59;;;;;;;21.30;17.25;;;;;;;5.07;94.60;103065.69;5038531;28;20032;-45
2022/11/12 01:54:26;;;;;;;23.27;17.17;;;;;;;5.02;94.49;103067.53;5046211;28;20020;-46
2022/11/12 01:56:52;;;;;;;20.80;16.33;;;;;;;5.00;94.07;103064.94;5041106;28;20129;-45
2022/11/12 01:59:27;;;;;;;21.33;16.38;;;;;;;4.98;94.23;103058.81;5046487;28;20100;-46
2022/11/12 02:01:53;;;;;;;20.77;16.33;;;;;;;4.97;93.72;103062.34;5035209;28;20376;-45
2022/11/12 02:04:20;;;;;;;23.02;17.60;;;;;;;4.96;94.24;103068.50;5039440;28;20288;-46
2022/11/12 02:06:47;;;;;;;21.23;16.75;;;;;;;4.96;94.21;103063.22;5065466;28;20032;-45
2022/11/12 02:09:12;;;;;;;20.98;17.42;;;;;;;4.93;94.13;103066.78;5041145;28;20033;-44
2022/11/12 02:11:37;;;;;;;21.45;17.20;;;;;;;4.90;94.23;103063.34;5052779;28;20056;-45
2022/11/12 02:14:04;;;;;;;22.13;16.55;;;;;;;4.86;94.11;103059.00;5053581;28;20017;-45
2022/11/12 02:16:31;;;;;;;20.92;16.80;;;;;;;4.82;94.30;103059.06;5040611;28;20068;-48
2022/11/12 02:18:56;;;;;;;23.30;17.73;;;;;;;4.83;94.37;103065.22;5050361;28;20060;-45
2022/11/12 02:21:23;;;;;;;23.90;17.63;;;;;;;4.76;93.92;103066.19;5054424;28;20057;-46
2022/11/12 02:24:03;;;;;;;21.45;16.63;;;;;;;4.76;93.80;103074.09;5049910;28;20060;-45
2022/11/12 02:26:33;;;;;;;22.38;16.55;;;;;;;4.74;93.83;103068.00;5054552;28;20052;-44
2022/11/12 02:28:59;;;;;;;19.55;16.27;;;;;;;4.72;93.89;103065.38;5047595;28;20036;-45
2022/11/12 02:31:24;;;;;;;19.98;16.88;;;;;;;4.71;93.62;103062.78;5054328;28;20044;-45
2022/11/12 02:33:49;;;;;;;22.35;17.27;;;;;;;4.68;93.75;103068.06;5043021;28;20506;-45
2022/11/12 02:36:15;;;;;;;20.30;16.05;;;;;;;4.64;93.86;103054.09;5051850;28;20123;-45
2022/11/12 02:38:40;;;;;;;21.58;17.75;;;;;;;4.63;93.79;103063.78;5049207;28;20112;-46
2022/11/12 02:41:06;;;;;;;21.83;16.65;;;;;;;4.61;93.97;103064.69;5062690;28;20032;-47
2022/11/12 02:43:31;;;;;;;23.27;17.50;;;;;;;4.59;93.83;103058.56;5053922;28;20094;-46
2022/11/12 02:45:56;;;;;;;22.60;17.50;;;;;;;4.55;93.83;103054.25;5053803;28;20029;-44
2022/11/12 02:48:22;;;;;;;22.50;17.17;;;;;;;4.51;93.76;103056.06;5048864;28;20033;-45
2022/11/12 02:50:47;;;;;;;22.38;17.05;;;;;;;4.48;93.85;103045.59;5053436;28;20363;-45
2022/11/12 02:53:12;;;;;;;20.05;17.17;;;;;;;4.46;94.56;103036.84;5052601;28;20025;-43
2022/11/12 02:55:38;;;;;;;23.88;16.45;;;;;;;4.44;94.37;103043.88;5053350;28;20056;-44
2022/11/12 02:58:03;;;;;;;21.63;16.90;;;;;;;4.43;94.16;103042.16;5053731;28;20107;-44
2022/11/12 03:00:29;;;;;;;20.40;15.98;;;;;;;4.43;94.14;103032.50;5051066;28;20024;-44
2022/11/12 03:03:00;;;;;;;22.23;16.35;;;;;;;4.41;93.88;103041.31;5044825;28;20044;-45
2022/11/12 03:05:31;;;;;;;21.05;15.43;;;;;;;4.43;93.84;103036.91;5053408;28;20440;-45
2022/11/12 03:07:57;;;;;;;20.55;16.35;;;;;;;4.40;93.99;103037.81;5042568;28;20399;-45
2022/11/12 03:10:24;;;;;;;22.35;15.75;;;;;;;4.39;94.07;103036.06;5038264;28;20025;-45
2022/11/12 03:12:49;;;;;;;23.25;16.95;;;;;;;4.35;93.97;103039.66;5053736;28;20057;-48
2022/11/12 03:15:16;;;;;;;19.75;16.33;;;;;;;4.35;94.72;103038.78;5051206;28;20116;-45
2022/11/12 03:17:42;;;;;;;22.65;17.38;;;;;;;4.29;94.26;103041.50;5044860;28;20051;-46
2022/11/12 03:20:07;;;;;;;22.63;17.33;;;;;;;4.30;94.17;103051.09;5053030;28;20433;-46
2022/11/12 03:22:32;;;;;;;22.63;15.63;;;;;;;4.30;94.30;103056.38;5053436;28;20029;-46
2022/11/12 03:24:58;;;;;;;20.70;16.35;;;;;;;4.27;94.08;103052.03;5049565;28;20033;-45
2022/11/12 03:27:23;;;;;;;20.05;15.20;;;;;;;4.27;93.86;103059.94;5052848;28;20036;-44
2022/11/12 03:29:48;;;;;;;25.25;16.52;;;;;;;4.23;93.93;103059.13;5052737;28;20445;-44
2022/11/12 03:32:13;;;;;;;20.30;15.63;;;;;;;4.22;93.83;103056.50;5045043;28;20033;-45
2022/11/12 03:34:39;;;;;;;20.00;15.73;;;;;;;4.22;93.94;103053.88;5052482;28;20386;-44
2022/11/12 03:37:08;;;;;;;19.67;15.45;;;;;;;4.19;93.85;103057.41;5044916;28;20029;-44
2022/11/12 03:39:33;;;;;;;21.50;16.45;;;;;;;4.17;93.93;103056.56;5050615;28;20116;-44
2022/11/12 03:41:59;;;;;;;20.77;15.85;;;;;;;4.16;94.28;103054.81;5053170;28;20059;-46
2022/11/12 03:44:24;;;;;;;19.33;14.85;;;;;;;4.16;94.76;103059.22;5052442;28;20441;-47
2022/11/12 03:46:49;;;;;;;19.45;15.30;;;;;;;4.14;94.65;103061.84;5044530;28;20041;-45
2022/11/12 03:49:14;;;;;;;19.15;14.05;;;;;;;4.14;94.64;103064.50;5050423;28;20033;-45
2022/11/12 03:51:40;;;;;;;22.35;16.05;;;;;;;4.13;94.65;103064.50;5052681;28;20029;-45
2022/11/12 03:54:05;;;;;;;18.38;14.65;;;;;;;4.13;94.78;103065.41;5039908;28;20029;-45
2022/11/12 03:56:30;;;;;;;18.30;14.48;;;;;;;4.11;95.01;103061.91;5052572;28;20108;-45
2022/11/12 03:58:56;;;;;;;18.40;14.25;;;;;;;4.11;95.48;103063.66;5052252;28;20048;-46
2022/11/12 04:01:21;;;;;;;18.33;13.60;;;;;;;4.09;95.86;103066.31;5051202;28;20340;-46
2022/11/12 04:03:46;;;;;;;17.45;13.10;;;;;;;4.09;96.10;103058.44;5050253;28;20049;-45
2022/11/12 04:08:55;;;;;;;16.75;12.75;;;;;;;4.12;97.19;103053.13;5035188;28;20083;-46
2022/11/12 04:11:20;;;;;;;18.88;12.55;;;;;;;4.12;97.15;103053.13;5043950;28;20053;-46
2022/11/12 04:13:46;;;;;;;18.30;12.73;;;;;;;4.11;96.91;103047.88;5051887;28;20036;-45
2022/11/12 04:21:50;;;;;;;15.35;11.30;;;;;;;4.08;96.88;103038.28;5050547;28;20036;-45
2022/11/12 04:27:28;;;;;;;16.70;12.35;;;;;;;4.08;96.34;103030.41;5041729;28;20117;-46
2022/11/12 04:32:44;;;;;;;15.68;11.98;;;;;;;4.07;95.82;103033.91;5046324;28;20720;-45
2022/11/12 04:35:09;;;;;;;15.65;12.02;;;;;;;4.07;95.80;103028.66;5052156;28;20095;-45
2022/11/12 04:37:44;;;;;;;19.48;13.32;;;;;;;4.05;95.63;103033.94;5051731;28;20433;-45
2022/11/12 04:45:49;;;;;;;14.65;11.55;;;;;;;3.99;95.30;103033.16;5051696;28;20035;-44
2022/11/12 04:48:14;;;;;;;14.95;11.82;;;;;;;4.01;95.08;103042.78;5050164;28;20071;-44
2022/11/12 04:50:42;;;;;;;15.13;11.23;;;;;;;3.97;95.05;103041.06;5051531;28;20111;-45
2022/11/12 04:53:07;;;;;;;16.60;10.90;;;;;;;3.94;94.76;103037.59;5051956;28;20072;-44
2022/11/12 04:55:32;;;;;;;15.05;11.77;;;;;;;3.94;94.89;103030.56;5051658;28;20424;-45
2022/11/12 04:57:58;;;;;;;14.40;10.93;;;;;;;3.91;94.55;103024.50;5046253;28;20029;-45
2022/11/12 05:00:24;;;;;;;14.70;10.95;;;;;;;3.89;94.40;103022.75;5049829;28;20495;-44
2022/11/12 05:02:49;;;;;;;17.75;11.98;;;;;;;3.88;94.50;103018.41;5041256;28;20388;-44
2022/11/12 05:05:15;;;;;;;13.38;11.52;;;;;;;3.84;94.28;103016.69;5046096;28;20061;-46
2022/11/12 05:07:40;;;;;;;16.90;11.27;;;;;;;3.84;94.39;103021.09;5043110;28;20025;-45
2022/11/12 05:10:06;;;;;;;12.93;10.85;;;;;;;3.81;94.37;103021.13;5047281;28;20060;-46
2022/11/12 05:12:31;;;;;;;14.73;11.25;;;;;;;3.80;94.77;103011.50;5040941;28;20102;-46
2022/11/12 05:14:57;;;;;;;13.50;10.80;;;;;;;3.77;95.12;103011.56;5051541;28;20032;-45
2022/11/12 05:17:22;;;;;;;14.13;10.57;;;;;;;3.78;94.75;103013.25;5051689;28;20039;-45
2022/11/12 05:19:47;;;;;;;17.85;11.55;;;;;;;3.76;95.14;103010.66;5040745;28;20072;-46
2022/11/12 05:22:12;;;;;;;14.80;11.18;;;;;;;3.75;95.33;103010.69;5052714;28;20021;-46
2022/11/12 05:24:40;;;;;;;14.55;10.77;;;;;;;3.72;95.08;103006.34;5057666;28;20038;-46
2022/11/12 05:27:11;;;;;;;13.75;10.70;;;;;;;3.70;94.77;102995.84;5054503;28;20025;-45
2022/11/12 05:29:36;;;;;;;14.00;10.43;;;;;;;3.72;95.24;103005.50;5058202;28;20091;-45
2022/11/12 05:32:02;;;;;;;14.63;10.48;;;;;;;3.70;95.15;103010.75;5048961;28;20506;-46
2022/11/12 05:34:28;;;;;;;15.75;10.63;;;;;;;3.65;95.02;103002.94;5051272;28;20024;-47
2022/11/12 05:36:53;;;;;;;13.00;10.23;;;;;;;3.68;95.17;103002.91;5046508;28;20021;-45
2022/11/12 05:39:18;;;;;;;12.52;10.20;;;;;;;3.66;95.44;102994.16;5051344;28;20013;-46
2022/11/12 05:41:43;;;;;;;15.48;10.32;;;;;;;3.66;95.37;103004.69;5055225;28;20024;-45
2022/11/12 05:44:09;;;;;;;11.35;9.85;;;;;;;3.67;95.33;103002.91;5054859;28;20021;-47
2022/11/12 05:46:34;;;;;;;13.63;9.90;;;;;;;3.66;95.16;103016.94;5047429;28;20125;-46
2022/11/12 05:49:00;;;;;;;15.52;10.05;;;;;;;3.65;95.00;103008.19;5051320;28;20028;-45
2022/11/12 05:51:25;;;;;;;12.55;9.88;;;;;;;3.63;94.92;103003.81;5044453;28;20033;-45
2022/11/12 05:53:50;;;;;;;13.82;10.68;;;;;;;3.63;95.07;103009.06;5053490;28;20032;-46
2022/11/12 05:56:16;;;;;;;15.32;10.15;;;;;;;3.61;95.17;103011.72;5044678;28;20074;-44
2022/11/12 05:58:41;;;;;;;11.82;10.48;;;;;;;3.60;95.30;103003.88;5054495;28;20090;-48
2022/11/12 06:01:06;;;;;;;13.05;9.80;;;;;;;3.60;94.95;103007.38;5053741;28;20040;-44
2022/11/12 06:03:32;;;;;;;14.40;10.07;;;;;;;3.58;94.89;103006.53;5054429;28;20070;-45
2022/11/12 06:05:58;;;;;;;15.23;9.60;;;;;;;3.55;95.06;103003.03;5054841;28;20032;-44
2022/11/12 06:08:23;;;;;;;11.60;9.27;;;;;;;3.55;95.18;102997.78;5040970;28;20017;-44
2022/11/12 06:10:49;;;;;;;12.70;9.18;;;;;;;3.54;94.98;102998.69;5054463;28;20033;-45
2022/11/12 06:13:15;;;;;;;12.95;9.48;;;;;;;3.54;94.72;102998.69;5053994;28;20067;-44
2022/11/12 06:15:41;;;;;;;11.73;9.32;;;;;;;3.52;94.96;103001.34;5044755;28;20100;-45
2022/11/12 06:18:06;;;;;;;12.48;9.18;;;;;;;3.50;94.85;103011.88;5053999;28;20031;-44
2022/11/12 06:20:33;;;;;;;15.98;10.20;;;;;;;3.48;94.98;103004.88;5049677;28;20072;-44
2022/11/12 06:22:58;;;;;;;13.45;9.80;;;;;;;3.49;94.69;103011.88;5049151;28;20083;-44
2022/11/12 06:25:23;;;;;;;13.68;9.55;;;;;;;3.45;94.54;103016.31;5054218;28;20524;-46
2022/11/12 06:27:49;;;;;;;14.02;10.02;;;;;;;3.45;94.79;103015.44;5044524;28;20064;-46
2022/11/12 06:30:16;;;;;;;15.57;9.98;;;;;;;3.41;94.67;103019.84;5054157;28;20028;-45
2022/11/12 06:32:45;;;;;;;14.30;9.73;;;;;;;3.38;94.69;103014.66;5053790;28;20402;-44
2022/11/12 06:35:10;;;;;;;13.15;9.25;;;;;;;3.40;94.64;103017.22;5046626;28;20033;-46
2022/11/12 06:37:35;;;;;;;11.88;9.65;;;;;;;3.40;94.31;103020.75;5053758;28;20147;-45
2022/11/12 06:40:00;;;;;;;12.93;10.07;;;;;;;3.37;94.39;103017.28;5053672;28;20029;-46
2022/11/12 06:42:26;;;;;;;12.93;9.65;;;;;;;3.38;94.34;103009.41;5042607;28;20087;-45
2022/11/12 06:44:51;;;;;;;12.25;9.57;;;;;;;3.35;94.20;103014.69;5052901;28;20047;-45
2022/11/12 06:47:16;;;;;;;13.00;9.80;;;;;;;3.36;95.04;103016.41;5053034;28;20485;-45
2022/11/12 06:49:41;;;;;;;14.43;9.55;;;;;;;3.37;95.40;103020.78;5049836;28;20021;-45
2022/11/12 06:52:07;;;;;;;14.43;10.10;;;;;;;3.36;95.10;103018.16;5053591;28;20066;-46
2022/11/12 06:54:32;;;;;;;12.23;9.50;;;;;;;3.37;95.42;103028.66;5046032;28;20470;-45
2022/11/12 06:56:57;;;;;;;15.88;9.68;;;;;;;3.38;95.29;103030.41;5049292;28;20094;-46
2022/11/12 06:59:22;;;;;;;17.80;10.23;;;;;;;3.37;95.68;103028.66;5053740;28;20466;-44
2022/11/12 07:01:48;;;;;;;17.05;10.20;;;;;;;3.36;95.18;103034.78;5052499;28;20060;-46
2022/11/12 07:04:13;;;;;;;12.73;10.00;;;;;;;3.35;95.43;103030.44;5050970;28;20041;-45
2022/11/12 07:06:38;;;;;;;15.75;9.82;;;;;;;3.36;95.76;103031.31;5048932;28;20032;-45
2022/11/12 07:09:05;;;;;;;15.63;9.55;;;;;;;3.37;96.06;103031.28;5033818;28;20534;-45
2022/11/12 07:11:30;;;;;;;12.85;9.95;;;;;;;3.36;96.11;103024.28;5047325;28;20498;-44
2022/11/12 07:13:55;;;;;;;13.30;8.93;;;;;;;3.36;95.97;103024.28;5049084;28;20076;-43
2022/11/12 07:16:21;;;;;;;17.58;10.82;;;;;;;3.40;96.37;103030.38;5047438;28;20025;-44
2022/11/12 07:18:48;;;;;;;16.55;10.00;;;;;;;3.41;96.49;103018.97;5052951;28;20386;-44
2022/11/12 07:21:15;;;;;;;15.18;10.50;;;;;;;3.44;97.19;103029.47;5053224;28;20033;-45
2022/11/12 07:23:41;;;;;;;14.73;10.13;;;;;;;3.44;96.60;103032.09;5049473;28;20025;-45
2022/11/12 07:26:12;;;;;;;13.40;9.45;;;;;;;3.46;96.62;103032.94;5049323;28;20063;-45
2022/11/12 07:28:37;;;;;;;14.10;10.13;;;;;;;3.48;96.81;103026.78;5038195;28;20124;-46
2022/11/12 07:31:05;;;;;;;13.15;9.80;;;;;;;3.50;97.27;103032.03;5045598;28;20112;-45
2022/11/12 07:33:31;;;;;;;12.45;9.73;;;;;;;3.51;97.02;103029.38;5051298;28;20463;-45
2022/11/12 07:36:08;;;;;;;15.82;9.73;;;;;;;3.54;97.56;103028.47;5043552;28;20039;-45
2022/11/12 07:38:36;;;;;;;14.02;10.68;;;;;;;3.55;98.09;103031.94;5049335;28;20024;-45
2022/11/12 07:41:09;;;;;;;15.90;9.88;;;;;;;3.59;97.88;103031.03;5035130;28;20391;-46
2022/11/12 07:43:36;;;;;;;15.27;10.40;;;;;;;3.63;98.30;103037.97;5037777;28;20043;-46
2022/11/12 07:46:14;;;;;;;14.57;10.75;;;;;;;3.67;98.68;103037.06;5032386;28;20040;-46
2022/11/12 07:48:39;;;;;;;15.23;10.60;;;;;;;3.69;98.62;103036.16;5032914;28;20080;-45
2022/11/12 07:51:16;;;;;;;15.00;10.90;;;;;;;3.75;98.85;103044.84;5035147;28;20037;-46
2022/11/12 07:53:42;;;;;;;16.23;11.27;;;;;;;3.79;99.12;103042.16;5040712;28;20087;-45
2022/11/12 07:56:11;;;;;;;15.57;10.43;;;;;;;3.82;99.41;103041.28;5046643;28;20040;-44
2022/11/12 07:58:37;;;;;;;17.02;11.18;;;;;;;3.87;99.07;103047.34;5042056;28;20026;-45
2022/11/12 08:01:09;;;;;;;15.57;11.13;;;;;;;3.91;99.39;103049.03;5039764;28;20102;-45
2022/11/12 08:03:35;;;;;;;17.73;11.43;;;;;;;3.97;99.64;103053.34;5036609;28;20041;-45
2022/11/12 08:06:00;;;;;;;18.42;11.48;;;;;;;4.01;99.81;103047.13;5038554;28;20535;-44
2022/11/12 08:08:26;;;;;;;14.38;10.80;;;;;;;4.07;99.78;103052.31;5034885;28;20039;-45
2022/11/12 08:10:58;;;;;;;15.52;11.68;;;;;;;4.12;100.00;103047.88;5039037;28;20398;-44
2022/11/12 08:13:23;;;;;;;18.92;11.75;;;;;;;4.20;100.00;103050.41;5036854;28;20056;-44
2022/11/12 08:15:50;;;;;;;16.42;11.98;;;;;;;4.25;99.90;103052.06;5038349;28;20042;-44
2022/11/12 08:18:16;;;;;;;15.80;11.18;;;;;;;4.31;99.92;103058.97;5037751;28;20128;-45
2022/11/12 08:20:42;;;;;;;14.63;10.70;;;;;;;4.35;99.69;103062.47;5036575;28;20033;-45
2022/11/12 08:23:08;;;;;;;16.23;11.80;;;;;;;4.39;99.78;103064.16;5038075;28;20084;-45
2022/11/12 08:25:34;;;;;;;15.20;11.50;;;;;;;4.47;99.97;103072.78;5034810;28;20022;-45
2022/11/12 08:28:00;;;;;;;18.23;12.00;;;;;;;4.51;100.00;103069.22;5039459;28;20045;-45
2022/11/12 08:30:26;;;;;;;17.33;12.80;;;;;;;4.57;100.00;103068.25;5036494;28;20045;-45
2022/11/12 08:33:00;;;;;;;21.70;12.35;;;;;;;4.63;100.00;103068.19;5037389;28;20056;-44
2022/11/12 08:35:26;;;;;;;18.98;13.15;;;;;;;4.71;99.96;103070.66;5036093;28;20505;-45
2022/11/12 08:38:00;;;;;;;17.13;12.13;;;;;;;4.78;100.00;103067.03;5041228;28;20041;-45
2022/11/12 08:40:30;;;;;;;16.98;11.48;;;;;;;4.85;100.00;103057.28;5036293;28;20117;-48
2022/11/12 08:43:00;;;;;;;17.30;11.77;;;;;;;4.91;100.00;103067.69;5036137;28;20088;-45
2022/11/12 08:45:27;;;;;;;18.15;12.77;;;;;;;5.02;100.00;103060.50;5039237;28;20068;-46
2022/11/12 08:47:57;;;;;;;17.25;12.13;;;;;;;5.13;100.00;103063.81;5045324;28;20037;-45
2022/11/12 08:50:22;;;;;;;22.48;12.90;;;;;;;5.26;100.00;103066.22;5048285;28;20124;-46
2022/11/12 08:52:47;;;;;;;16.17;11.85;;;;;;;5.38;100.00;103068.63;5045870;28;20124;-47
2022/11/12 08:55:13;;;;;;;21.52;12.80;;;;;;;5.51;100.00;103070.13;5046857;28;20705;-47
2022/11/12 08:57:41;;;;;;;20.27;12.43;;;;;;;5.62;100.00;103064.63;5052288;28;20033;-47
2022/11/12 09:00:08;;;;;;;15.98;11.80;;;;;;;5.75;99.95;103066.13;5053474;28;20429;-44
2022/11/12 09:02:33;;;;;;;18.30;12.68;;;;;;;5.95;100.00;103059.56;5052927;28;20063;-46
2022/11/12 09:04:58;;;;;;;17.35;11.98;;;;;;;6.10;99.63;103056.63;5055616;28;20428;-46
2022/11/12 09:07:24;;;;;;;19.58;12.10;;;;;;;6.26;98.82;103059.78;5049413;28;20037;-48
2022/11/12 09:09:49;;;;;;;23.55;15.43;;;;;;;6.45;98.24;103059.38;5049349;28;20025;-46
2022/11/12 09:12:18;;;;;;;20.00;12.63;;;;;;;6.61;98.14;103058.09;5055259;28;20380;-47
2022/11/12 09:14:44;;;;;;;27.05;15.95;;;;;;;6.78;97.96;103060.31;5049558;28;20030;-48
2022/11/12 09:17:09;;;;;;;22.45;15.43;;;;;;;6.94;96.19;103052.84;5053316;28;20033;-46
2022/11/12 09:19:34;;;;;;;26.42;19.60;;;;;;;7.11;95.27;103060.38;5043792;28;20030;-47
2022/11/12 09:22:00;;;;;;;30.92;22.73;;;;;;;7.29;95.76;103056.34;5035043;28;20112;-47
2022/11/12 09:24:25;;;;;;;16.10;11.10;;;;;;;7.46;93.84;103060.28;5040313;28;20040;-46
2022/11/12 09:26:53;;;;;;;17.02;12.93;;;;;;;7.67;93.46;103057.03;5041153;28;20072;-46
2022/11/12 09:29:18;;;;;;;16.33;10.68;;;;;;;7.86;92.24;103059.16;5039461;28;20027;-47
2022/11/12 09:31:44;;;;;;;12.23;9.40;;;;;;;8.00;91.47;103059.59;5046514;28;20029;-47
2022/11/12 09:34:09;;;;;;;12.95;9.63;;;;;;;8.11;90.55;103059.28;5053037;28;20033;-46
2022/11/12 09:36:35;;;;;;;14.57;9.77;;;;;;;8.23;89.57;103053.63;5047137;28;20082;-45
2022/11/12 09:39:00;;;;;;;14.07;8.82;;;;;;;8.40;88.62;103057.50;5053069;28;20066;-44
2022/11/12 09:41:33;;;;;;;13.38;8.75;;;;;;;8.59;88.86;103055.16;5046189;28;20128;-45
2022/11/12 09:44:05;;;;;;;12.93;8.93;;;;;;;8.72;87.29;103053.84;5054220;28;20360;-47
2022/11/12 09:46:37;;;;;;;14.38;8.95;;;;;;;8.82;87.62;103051.75;5054971;28;20051;-45
2022/11/12 09:49:18;;;;;;;12.55;8.90;;;;;;;8.97;86.54;103061.81;5055426;28;20029;-45
2022/11/12 09:52:20;;;;;;;12.90;8.55;;;;;;;9.13;86.26;103054.22;5039551;28;20037;-47
2022/11/12 09:54:50;;;;;;;20.58;8.90;;;;;;;9.28;84.84;103058.13;5054707;28;20116;-47
2022/11/12 09:57:16;;;;;;;20.70;9.55;;;;;;;9.42;84.76;103055.81;5055172;28;20108;-46
2022/11/12 09:59:41;;;;;;;12.88;9.30;;;;;;;9.56;83.89;103059.75;5043631;28;20105;-46
2022/11/12 10:02:26;;;;;;;14.88;9.98;;;;;;;9.72;85.98;103060.91;5054505;28;20025;-46
2022/11/12 10:04:59;;;;;;;13.13;8.88;;;;;;;9.81;82.82;103060.56;5042305;28;20029;-46
2022/11/12 10:07:43;;;;;;;14.05;9.85;;;;;;;9.99;83.60;103053.72;5046183;28;20057;-46
2022/11/12 10:10:14;;;;;;;12.93;9.75;;;;;;;10.18;82.27;103055.63;5035990;28;20042;-46
2022/11/12 10:12:45;;;;;;;15.20;9.70;;;;;;;10.35;80.93;103055.00;5046584;28;20110;-45
2022/11/12 10:18:14;;;;;;;11.40;8.32;;;;;;;10.52;79.85;103041.91;5037418;28;20043;-45
2022/11/12 10:20:57;;;;;;;13.85;9.43;;;;;;;10.64;81.29;103043.19;5053305;28;20025;-45
2022/11/12 10:23:37;;;;;;;16.40;9.63;;;;;;;10.78;79.60;103041.75;5048727;28;20047;-45
2022/11/12 10:26:11;;;;;;;16.23;9.27;;;;;;;10.92;78.48;103042.00;5045240;28;20029;-45
2022/11/12 10:28:46;;;;;;;12.77;9.55;;;;;;;11.08;79.62;103039.56;5053081;28;20426;-45
2022/11/12 10:31:14;;;;;;;9.70;8.50;;;;;;;11.21;77.06;103047.88;5043373;28;20541;-45
2022/11/12 10:33:39;;;;;;;14.55;9.35;;;;;;;11.33;77.55;103036.66;5050332;28;20078;-46
2022/11/12 10:36:17;;;;;;;12.13;8.40;;;;;;;11.52;78.16;103042.00;5051973;28;20037;-45
2022/11/12 10:38:46;;;;;;;18.60;9.15;;;;;;;11.67;77.46;103040.44;5053845;28;20049;-46
2022/11/12 10:41:29;;;;;;;10.88;8.05;;;;;;;11.83;78.17;103037.97;5054539;28;20044;-45
2022/11/12 10:44:00;;;;;;;11.95;7.63;;;;;;;12.00;75.93;103030.06;5039285;28;20029;-45
2022/11/12 10:46:28;;;;;;;11.15;6.57;;;;;;;12.08;72.85;103031.50;5050910;28;20413;-45
2022/11/12 10:48:57;;;;;;;13.32;6.63;;;;;;;12.18;72.34;103030.13;5045555;28;20039;-45
2022/11/12 10:51:25;;;;;;;8.88;6.38;;;;;;;12.26;71.87;103027.06;5046071;28;20125;-46
2022/11/12 10:53:51;;;;;;;7.80;6.43;;;;;;;12.35;72.18;103021.28;5053407;28;20029;-45
2022/11/12 10:56:24;;;;;;;11.90;7.38;;;;;;;12.45;71.94;103021.72;5050533;28;20341;-45
2022/11/12 10:59:14;;;;;;;8.68;6.85;;;;;;;12.56;72.10;103019.38;5051312;28;20400;-44
2022/11/12 11:01:39;;;;;;;11.10;6.53;;;;;;;12.70;69.84;103011.53;5051952;28;20025;-44
2022/11/12 11:04:34;;;;;;;10.60;7.18;;;;;;;12.77;70.01;103006.72;5051878;28;20029;-44
2022/11/12 11:07:05;;;;;;;10.02;6.45;;;;;;;12.88;67.92;103001.72;5045761;28;20576;-46
2022/11/12 11:09:31;;;;;;;8.80;6.45;;;;;;;12.99;69.46;103002.94;5048100;28;20025;-44
2022/11/12 11:11:57;;;;;;;10.30;7.00;;;;;;;13.08;68.05;103006.00;5047211;28;20064;-45
2022/11/12 11:14:22;;;;;;;8.32;6.00;;;;;;;13.25;68.08;103010.44;5048784;28;20467;-44
2022/11/12 11:16:56;;;;;;;7.73;6.30;;;;;;;13.33;67.88;103012.75;5047958;28;20021;-45
2022/11/12 11:19:31;;;;;;;9.27;6.30;;;;;;;13.48;68.62;103005.72;5051560;28;20017;-45
2022/11/12 11:22:10;;;;;;;17.58;11.98;;;;;;;13.57;67.82;103007.03;5048721;28;20116;-45
2022/11/12 11:24:46;;;;;;;11.15;8.23;;;;;;;13.65;66.19;103004.78;5045912;28;20446;-45
2022/11/12 11:27:28;;;;;;;9.73;7.28;;;;;;;13.72;66.87;103003.50;5043066;28;20041;-45
2022/11/12 11:30:08;;;;;;;12.85;7.97;;;;;;;13.79;66.92;102996.00;5046983;28;20037;-45
2022/11/12 11:32:57;;;;;;;8.05;5.72;;;;;;;13.92;63.79;103004.19;5049333;28;20447;-44
2022/11/12 11:35:52;;;;;;;8.40;5.97;;;;;;;14.04;66.96;102995.50;5045085;28;20478;-45
2022/11/12 11:38:37;;;;;;;16.67;10.73;;;;;;;14.12;67.20;102995.03;5035851;28;20661;-44
2022/11/12 11:41:21;;;;;;;10.48;6.97;;;;;;;14.18;66.55;102992.03;5047431;28;20513;-44
2022/11/12 11:43:47;;;;;;;9.95;7.07;;;;;;;14.26;63.67;102984.44;5043081;28;20036;-44
2022/11/12 11:46:26;;;;;;;18.17;11.73;;;;;;;14.37;65.06;102973.09;5049179;28;20421;-44